Upperco, Maryland
Current Conditions -  °F | °C
As of 5:00 PM on Monday 22 Dec 2014 (Local Time) from KDMW Reporting Station
Unknown Precip Unknown Precip  
Wind Chill: 34°   Ceiling: 2700
Heat Index: 34°   Visibility: 1.7mi
Dew Point: 30°   Wind: 0mph
Humidity: 87%   Direction: NA
Pressure: 30.16"   Gusts: NA
Location:  39.56°N, 76.84°W
Report Text: KDMW 222200Z AUTO 00000KT 1 3/4SM UP OVC027 01/M01 A3016 RMK AO2 P0001
Loading
Personal Weather Stations






























Interactive Weather Map New forecast layout! Learn more

10-Day Weather Forecast

Advertisements
Track Severe Weather on mobile